Terminal Aerodrome Forecast
Issued by NWS Houston/Galveston, TX

Home | Current Version | Previous Version | Text Only | Print | Product List | Glossary On
Versions: 1 2 3 4 5 6 7 8 9 10 11 12 13 14 15 16 17 18 19 20 21 22 23 24 25 26 27 28 29 30 31 32 33 34 35
000
FTUS44 KHGX 242327
TAFCLL
TAF
KCLL 242327Z 2500/2524 04006KT P6SM SKC
     FM250100 VRB03KT P6SM SCT250
     FM251500 20005KT P6SM FEW030
     FM252100 17008KT P6SM SCT050=

USA.gov is the U.S. government's official web portal to all federal, state and local government web resources and services.